createdAt,value
2023-03-21T00:11:02.731Z,15.90
2023-03-21T00:23:04.905Z,13.30
2023-03-21T00:35:29.665Z,16.00
2023-03-21T00:47:07.536Z,16.60
2023-03-21T00:59:04.609Z,13.90
2023-03-21T01:11:05.027Z,15.90
2023-03-21T01:23:09.747Z,12.80
2023-03-21T01:35:05.971Z,14.80
2023-03-21T01:47:11.833Z,14.50
2023-03-21T01:59:09.496Z,14.00
2023-03-21T02:11:07.287Z,17.80
2023-03-21T02:23:07.731Z,18.20
2023-03-21T02:35:08.189Z,17.10
2023-03-21T02:47:08.748Z,20.90
2023-03-21T02:59:11.370Z,18.60
2023-03-21T03:11:09.566Z,19.90
2023-03-21T03:23:10.011Z,15.10
2023-03-21T03:35:10.406Z,14.30
2023-03-21T03:47:22.939Z,15.50
2023-03-21T03:59:14.066Z,15.60
2023-03-21T04:11:14.007Z,12.50
2023-03-21T04:23:12.264Z,14.00
2023-03-21T04:35:12.702Z,13.30
2023-03-21T04:47:13.193Z,14.90
2023-03-21T04:59:15.848Z,18.90
2023-03-21T05:11:14.066Z,11.90
2023-03-21T05:23:14.509Z,20.20
2023-03-21T05:35:15.004Z,16.30
2023-03-21T05:47:15.411Z,16.60
2023-03-21T05:59:15.881Z,16.10
2023-03-21T06:11:16.373Z,9.50
2023-03-21T06:23:16.806Z,14.10
2023-03-21T06:35:17.229Z,12.70
2023-03-21T06:47:17.692Z,8.70
2023-03-21T06:59:18.126Z,5.90
2023-03-21T07:11:18.621Z,8.10
2023-03-21T07:23:19.086Z,8.60
2023-03-21T07:35:19.506Z,6.60
2023-03-21T07:47:19.954Z,4.60
2023-03-21T07:59:20.434Z,6.50
2023-03-21T08:11:20.842Z,4.70
2023-03-21T08:23:21.306Z,4.20
2023-03-21T08:35:21.757Z,3.70
2023-03-21T08:47:22.230Z,3.30
2023-03-21T08:59:22.664Z,3.50
